sensor_id;sensor_type;location;lat;lon;timestamp;P1;durP1;ratioP1;P2;durP2;ratioP2
35290;SDS011;21411;50.024;19.220;2022-12-18T00:00:46;65.40;;;30.10;;
35290;SDS011;21411;50.024;19.220;2022-12-18T00:03:33;57.30;;;27.40;;
35290;SDS011;21411;50.024;19.220;2022-12-18T00:05:59;64.20;;;27.50;;
35290;SDS011;21411;50.024;19.220;2022-12-18T00:08:25;61.10;;;28.80;;
35290;SDS011;21411;50.024;19.220;2022-12-18T00:10:51;62.20;;;27.80;;
35290;SDS011;21411;50.024;19.220;2022-12-18T00:13:17;56.70;;;25.70;;
35290;SDS011;21411;50.024;19.220;2022-12-18T00:15:43;61.30;;;28.30;;
35290;SDS011;21411;50.024;19.220;2022-12-18T00:18:09;53.10;;;26.70;;
35290;SDS011;21411;50.024;19.220;2022-12-18T00:20:35;63.40;;;27.50;;
35290;SDS011;21411;50.024;19.220;2022-12-18T00:23:03;64.20;;;29.10;;
35290;SDS011;21411;50.024;19.220;2022-12-18T00:25:32;60.20;;;27.20;;
35290;SDS011;21411;50.024;19.220;2022-12-18T00:27:59;58.60;;;27.10;;
35290;SDS011;21411;50.024;19.220;2022-12-18T00:30:27;55.40;;;25.70;;
35290;SDS011;21411;50.024;19.220;2022-12-18T00:32:53;57.40;;;27.40;;
35290;SDS011;21411;50.024;19.220;2022-12-18T00:35:20;55.40;;;25.20;;
35290;SDS011;21411;50.024;19.220;2022-12-18T00:37:46;66.40;;;27.60;;
35290;SDS011;21411;50.024;19.220;2022-12-18T00:40:12;56.60;;;27.30;;
35290;SDS011;21411;50.024;19.220;2022-12-18T00:42:40;58.70;;;29.60;;
35290;SDS011;21411;50.024;19.220;2022-12-18T00:45:35;65.00;;;28.80;;
35290;SDS011;21411;50.024;19.220;2022-12-18T00:48:01;65.60;;;30.40;;
35290;SDS011;21411;50.024;19.220;2022-12-18T00:50:27;57.70;;;27.70;;
35290;SDS011;21411;50.024;19.220;2022-12-18T00:52:53;54.60;;;28.50;;
35290;SDS011;21411;50.024;19.220;2022-12-18T00:55:19;70.50;;;29.90;;
35290;SDS011;21411;50.024;19.220;2022-12-18T00:57:46;67.00;;;29.00;;
35290;SDS011;21411;50.024;19.220;2022-12-18T01:00:13;55.60;;;27.40;;
35290;SDS011;21411;50.024;19.220;2022-12-18T01:02:41;56.20;;;27.40;;
35290;SDS011;21411;50.024;19.220;2022-12-18T01:05:10;62.40;;;28.60;;
35290;SDS011;21411;50.024;19.220;2022-12-18T01:07:37;61.40;;;29.10;;
35290;SDS011;21411;50.024;19.220;2022-12-18T01:10:03;67.50;;;30.10;;
35290;SDS011;21411;50.024;19.220;2022-12-18T01:12:30;57.20;;;27.30;;
35290;SDS011;21411;50.024;19.220;2022-12-18T01:14:56;64.70;;;30.70;;
35290;SDS011;21411;50.024;19.220;2022-12-18T01:17:23;57.80;;;27.50;;
35290;SDS011;21411;50.024;19.220;2022-12-18T01:19:49;66.80;;;29.60;;
35290;SDS011;21411;50.024;19.220;2022-12-18T01:22:15;62.30;;;30.00;;
35290;SDS011;21411;50.024;19.220;2022-12-18T01:24:41;75.40;;;32.10;;
35290;SDS011;21411;50.024;19.220;2022-12-18T01:27:09;71.30;;;30.80;;
35290;SDS011;21411;50.024;19.220;2022-12-18T01:29:34;71.80;;;31.70;;
35290;SDS011;21411;50.024;19.220;2022-12-18T01:32:00;58.30;;;28.50;;
35290;SDS011;21411;50.024;19.220;2022-12-18T01:34:26;59.60;;;29.00;;
35290;SDS011;21411;50.024;19.220;2022-12-18T01:36:52;55.80;;;26.10;;
35290;SDS011;21411;50.024;19.220;2022-12-18T01:39:18;59.10;;;27.40;;
35290;SDS011;21411;50.024;19.220;2022-12-18T01:41:45;58.90;;;27.70;;
35290;SDS011;21411;50.024;19.220;2022-12-18T01:50:14;54.20;;;27.70;;
35290;SDS011;21411;50.024;19.220;2022-12-18T01:52:43;73.40;;;32.90;;
35290;SDS011;21411;50.024;19.220;2022-12-18T01:55:22;70.20;;;31.60;;
35290;SDS011;21411;50.024;19.220;2022-12-18T01:57:54;62.30;;;27.70;;
35290;SDS011;21411;50.024;19.220;2022-12-18T02:00:22;72.40;;;31.10;;
35290;SDS011;21411;50.024;19.220;2022-12-18T02:02:49;70.30;;;31.40;;
35290;SDS011;21411;50.024;19.220;2022-12-18T02:05:22;54.30;;;25.70;;
35290;SDS011;21411;50.024;19.220;2022-12-18T02:08:16;65.00;;;29.30;;
35290;SDS011;21411;50.024;19.220;2022-12-18T02:13:41;56.50;;;27.40;;
35290;SDS011;21411;50.024;19.220;2022-12-18T02:19:43;58.60;;;26.70;;
35290;SDS011;21411;50.024;19.220;2022-12-18T02:28:02;51.80;;;24.50;;
35290;SDS011;21411;50.024;19.220;2022-12-18T02:30:31;58.00;;;28.40;;
35290;SDS011;21411;50.024;19.220;2022-12-18T02:33:02;67.50;;;30.40;;
35290;SDS011;21411;50.024;19.220;2022-12-18T02:37:58;61.30;;;27.40;;
35290;SDS011;21411;50.024;19.220;2022-12-18T02:40:26;59.30;;;25.80;;
35290;SDS011;21411;50.024;19.220;2022-12-18T02:42:54;57.10;;;25.40;;
35290;SDS011;21411;50.024;19.220;2022-12-18T02:45:20;57.20;;;26.70;;
35290;SDS011;21411;50.024;19.220;2022-12-18T02:47:47;51.90;;;26.90;;
35290;SDS011;21411;50.024;19.220;2022-12-18T02:56:26;53.30;;;24.30;;
35290;SDS011;21411;50.024;19.220;2022-12-18T02:59:07;51.80;;;25.10;;
35290;SDS011;21411;50.024;19.220;2022-12-18T03:07:15;55.00;;;26.30;;
35290;SDS011;21411;50.024;19.220;2022-12-18T03:09:49;58.80;;;27.10;;
35290;SDS011;21411;50.024;19.220;2022-12-18T03:15:00;54.80;;;25.80;;
35290;SDS011;21411;50.024;19.220;2022-12-18T03:17:52;60.70;;;28.90;;
35290;SDS011;21411;50.024;19.220;2022-12-18T03:20:23;57.40;;;28.40;;
35290;SDS011;21411;50.024;19.220;2022-12-18T03:22:53;51.70;;;24.80;;
35290;SDS011;21411;50.024;19.220;2022-12-18T03:25:25;57.40;;;28.60;;
35290;SDS011;21411;50.024;19.220;2022-12-18T03:27:54;61.50;;;28.50;;
35290;SDS011;21411;50.024;19.220;2022-12-18T03:30:23;54.30;;;27.30;;
35290;SDS011;21411;50.024;19.220;2022-12-18T03:32:53;60.90;;;29.60;;
35290;SDS011;21411;50.024;19.220;2022-12-18T03:37:52;51.30;;;24.20;;
35290;SDS011;21411;50.024;19.220;2022-12-18T03:40:20;61.30;;;28.60;;
35290;SDS011;21411;50.024;19.220;2022-12-18T03:42:56;57.80;;;26.20;;
35290;SDS011;21411;50.024;19.220;2022-12-18T03:48:01;60.00;;;29.40;;
35290;SDS011;21411;50.024;19.220;2022-12-18T03:53:22;58.20;;;29.30;;
35290;SDS011;21411;50.024;19.220;2022-12-18T03:55:54;59.80;;;29.20;;
35290;SDS011;21411;50.024;19.220;2022-12-18T03:58:23;63.70;;;31.10;;
35290;SDS011;21411;50.024;19.220;2022-12-18T04:00:51;54.70;;;25.60;;
35290;SDS011;21411;50.024;19.220;2022-12-18T04:03:20;57.80;;;27.70;;
35290;SDS011;21411;50.024;19.220;2022-12-18T04:05:48;58.60;;;29.90;;
35290;SDS011;21411;50.024;19.220;2022-12-18T04:08:16;59.30;;;28.20;;
35290;SDS011;21411;50.024;19.220;2022-12-18T04:10:43;65.80;;;31.90;;
35290;SDS011;21411;50.024;19.220;2022-12-18T04:13:09;62.60;;;28.80;;
35290;SDS011;21411;50.024;19.220;2022-12-18T04:15:35;60.60;;;29.30;;
35290;SDS011;21411;50.024;19.220;2022-12-18T04:18:03;58.40;;;29.80;;
35290;SDS011;21411;50.024;19.220;2022-12-18T04:20:29;61.00;;;30.20;;
35290;SDS011;21411;50.024;19.220;2022-12-18T04:22:55;60.50;;;29.80;;
35290;SDS011;21411;50.024;19.220;2022-12-18T04:25:21;61.30;;;27.40;;
35290;SDS011;21411;50.024;19.220;2022-12-18T04:27:47;70.70;;;30.90;;
35290;SDS011;21411;50.024;19.220;2022-12-18T04:30:13;63.40;;;28.40;;
35290;SDS011;21411;50.024;19.220;2022-12-18T04:32:39;67.60;;;31.10;;
35290;SDS011;21411;50.024;19.220;2022-12-18T04:35:05;68.80;;;31.40;;
35290;SDS011;21411;50.024;19.220;2022-12-18T04:37:36;78.00;;;33.70;;
35290;SDS011;21411;50.024;19.220;2022-12-18T04:40:03;75.10;;;35.10;;
35290;SDS011;21411;50.024;19.220;2022-12-18T04:42:31;76.00;;;35.20;;
35290;SDS011;21411;50.024;19.220;2022-12-18T04:44:57;85.90;;;37.60;;
35290;SDS011;21411;50.024;19.220;2022-12-18T04:47:22;78.20;;;37.30;;
35290;SDS011;21411;50.024;19.220;2022-12-18T04:49:48;75.70;;;33.80;;
35290;SDS011;21411;50.024;19.220;2022-12-18T04:52:14;79.60;;;38.40;;
35290;SDS011;21411;50.024;19.220;2022-12-18T04:54:41;81.30;;;37.50;;
35290;SDS011;21411;50.024;19.220;2022-12-18T04:57:06;84.30;;;39.60;;
35290;SDS011;21411;50.024;19.220;2022-12-18T04:59:32;76.70;;;37.30;;
35290;SDS011;21411;50.024;19.220;2022-12-18T05:01:58;80.70;;;36.80;;
35290;SDS011;21411;50.024;19.220;2022-12-18T05:04:24;90.70;;;38.50;;
35290;SDS011;21411;50.024;19.220;2022-12-18T05:06:50;84.00;;;41.60;;
35290;SDS011;21411;50.024;19.220;2022-12-18T05:09:16;88.40;;;39.00;;
35290;SDS011;21411;50.024;19.220;2022-12-18T05:11:42;77.80;;;35.20;;
35290;SDS011;21411;50.024;19.220;2022-12-18T05:14:08;79.10;;;35.50;;
35290;SDS011;21411;50.024;19.220;2022-12-18T05:16:35;75.30;;;33.40;;
35290;SDS011;21411;50.024;19.220;2022-12-18T05:19:00;83.90;;;34.80;;
35290;SDS011;21411;50.024;19.220;2022-12-18T05:21:26;77.70;;;34.60;;
35290;SDS011;21411;50.024;19.220;2022-12-18T05:23:53;81.30;;;37.30;;
35290;SDS011;21411;50.024;19.220;2022-12-18T05:26:18;81.50;;;34.50;;
35290;SDS011;21411;50.024;19.220;2022-12-18T05:28:44;75.70;;;31.30;;
35290;SDS011;21411;50.024;19.220;2022-12-18T05:31:12;86.30;;;36.90;;
35290;SDS011;21411;50.024;19.220;2022-12-18T05:33:38;81.00;;;35.70;;
35290;SDS011;21411;50.024;19.220;2022-12-18T05:36:05;75.50;;;33.90;;
35290;SDS011;21411;50.024;19.220;2022-12-18T05:38:34;84.70;;;36.90;;
35290;SDS011;21411;50.024;19.220;2022-12-18T05:41:02;86.00;;;34.20;;
35290;SDS011;21411;50.024;19.220;2022-12-18T05:43:29;74.80;;;34.40;;
35290;SDS011;21411;50.024;19.220;2022-12-18T05:45:55;69.90;;;30.50;;
35290;SDS011;21411;50.024;19.220;2022-12-18T05:48:22;72.10;;;31.50;;
35290;SDS011;21411;50.024;19.220;2022-12-18T05:50:49;78.70;;;32.60;;
35290;SDS011;21411;50.024;19.220;2022-12-18T05:53:16;69.40;;;33.00;;
35290;SDS011;21411;50.024;19.220;2022-12-18T05:55:44;74.10;;;31.70;;
35290;SDS011;21411;50.024;19.220;2022-12-18T05:58:12;67.00;;;31.90;;
35290;SDS011;21411;50.024;19.220;2022-12-18T06:00:39;72.50;;;35.10;;
35290;SDS011;21411;50.024;19.220;2022-12-18T06:03:08;78.50;;;35.30;;
35290;SDS011;21411;50.024;19.220;2022-12-18T06:05:36;80.10;;;33.50;;
35290;SDS011;21411;50.024;19.220;2022-12-18T06:08:07;80.90;;;36.60;;
35290;SDS011;21411;50.024;19.220;2022-12-18T06:10:33;76.20;;;32.00;;
35290;SDS011;21411;50.024;19.220;2022-12-18T06:12:59;71.40;;;33.20;;
35290;SDS011;21411;50.024;19.220;2022-12-18T06:15:25;76.10;;;34.20;;
35290;SDS011;21411;50.024;19.220;2022-12-18T06:17:51;77.20;;;35.70;;
35290;SDS011;21411;50.024;19.220;2022-12-18T06:20:17;79.60;;;36.40;;
35290;SDS011;21411;50.024;19.220;2022-12-18T06:22:44;85.40;;;37.10;;
35290;SDS011;21411;50.024;19.220;2022-12-18T06:25:10;75.00;;;35.60;;
35290;SDS011;21411;50.024;19.220;2022-12-18T06:27:56;79.60;;;37.70;;
35290;SDS011;21411;50.024;19.220;2022-12-18T06:30:22;79.70;;;36.30;;
35290;SDS011;21411;50.024;19.220;2022-12-18T06:32:49;78.30;;;37.00;;
35290;SDS011;21411;50.024;19.220;2022-12-18T06:35:17;97.40;;;42.20;;
35290;SDS011;21411;50.024;19.220;2022-12-18T06:37:44;76.50;;;36.30;;
35290;SDS011;21411;50.024;19.220;2022-12-18T06:40:09;74.60;;;36.00;;
35290;SDS011;21411;50.024;19.220;2022-12-18T06:42:36;81.50;;;40.10;;
35290;SDS011;21411;50.024;19.220;2022-12-18T06:45:03;86.40;;;39.80;;
35290;SDS011;21411;50.024;19.220;2022-12-18T06:47:30;82.40;;;37.20;;
35290;SDS011;21411;50.024;19.220;2022-12-18T06:49:56;81.10;;;38.00;;
35290;SDS011;21411;50.024;19.220;2022-12-18T06:52:22;78.40;;;36.90;;
35290;SDS011;21411;50.024;19.220;2022-12-18T06:54:47;79.40;;;36.00;;
35290;SDS011;21411;50.024;19.220;2022-12-18T06:57:13;78.50;;;36.50;;
35290;SDS011;21411;50.024;19.220;2022-12-18T06:59:39;80.00;;;39.50;;
35290;SDS011;21411;50.024;19.220;2022-12-18T07:02:05;77.40;;;37.30;;
35290;SDS011;21411;50.024;19.220;2022-12-18T07:04:32;78.70;;;36.90;;
35290;SDS011;21411;50.024;19.220;2022-12-18T07:06:58;78.20;;;35.30;;
35290;SDS011;21411;50.024;19.220;2022-12-18T07:09:24;73.70;;;34.20;;
35290;SDS011;21411;50.024;19.220;2022-12-18T07:11:50;74.40;;;34.40;;
35290;SDS011;21411;50.024;19.220;2022-12-18T07:14:16;83.20;;;36.70;;
35290;SDS011;21411;50.024;19.220;2022-12-18T07:16:42;75.20;;;36.70;;
35290;SDS011;21411;50.024;19.220;2022-12-18T07:19:10;83.40;;;38.30;;
35290;SDS011;21411;50.024;19.220;2022-12-18T07:21:36;80.80;;;37.70;;
35290;SDS011;21411;50.024;19.220;2022-12-18T07:24:02;77.00;;;36.70;;
35290;SDS011;21411;50.024;19.220;2022-12-18T07:26:28;82.20;;;38.30;;
35290;SDS011;21411;50.024;19.220;2022-12-18T07:28:55;78.90;;;37.70;;
35290;SDS011;21411;50.024;19.220;2022-12-18T07:31:22;76.20;;;36.80;;
35290;SDS011;21411;50.024;19.220;2022-12-18T07:33:50;76.00;;;34.40;;
35290;SDS011;21411;50.024;19.220;2022-12-18T07:36:17;69.90;;;33.60;;
35290;SDS011;21411;50.024;19.220;2022-12-18T07:38:44;59.80;;;30.30;;
35290;SDS011;21411;50.024;19.220;2022-12-18T07:41:13;67.60;;;34.80;;
35290;SDS011;21411;50.024;19.220;2022-12-18T07:43:39;77.90;;;35.30;;
35290;SDS011;21411;50.024;19.220;2022-12-18T07:46:07;70.90;;;34.40;;
35290;SDS011;21411;50.024;19.220;2022-12-18T07:48:35;77.30;;;35.50;;
35290;SDS011;21411;50.024;19.220;2022-12-18T07:51:02;68.90;;;33.50;;
35290;SDS011;21411;50.024;19.220;2022-12-18T07:53:30;78.10;;;37.10;;
35290;SDS011;21411;50.024;19.220;2022-12-18T07:56:01;69.80;;;34.40;;
35290;SDS011;21411;50.024;19.220;2022-12-18T07:58:29;78.90;;;37.70;;
35290;SDS011;21411;50.024;19.220;2022-12-18T08:01:02;77.60;;;37.30;;
35290;SDS011;21411;50.024;19.220;2022-12-18T08:03:29;83.20;;;39.40;;
35290;SDS011;21411;50.024;19.220;2022-12-18T08:05:59;78.60;;;36.60;;
35290;SDS011;21411;50.024;19.220;2022-12-18T08:08:27;79.20;;;38.00;;
35290;SDS011;21411;50.024;19.220;2022-12-18T08:10:55;78.70;;;39.00;;
35290;SDS011;21411;50.024;19.220;2022-12-18T08:13:22;74.20;;;38.00;;
35290;SDS011;21411;50.024;19.220;2022-12-18T08:15:58;76.90;;;39.20;;
35290;SDS011;21411;50.024;19.220;2022-12-18T08:18:25;82.80;;;41.10;;
35290;SDS011;21411;50.024;19.220;2022-12-18T08:20:52;88.60;;;40.70;;
35290;SDS011;21411;50.024;19.220;2022-12-18T08:23:18;86.90;;;40.80;;
35290;SDS011;21411;50.024;19.220;2022-12-18T08:25:44;86.20;;;41.00;;
35290;SDS011;21411;50.024;19.220;2022-12-18T08:28:10;85.00;;;41.10;;
35290;SDS011;21411;50.024;19.220;2022-12-18T08:30:36;95.40;;;46.60;;
35290;SDS011;21411;50.024;19.220;2022-12-18T08:33:03;92.90;;;46.30;;
35290;SDS011;21411;50.024;19.220;2022-12-18T08:35:29;95.60;;;46.90;;
35290;SDS011;21411;50.024;19.220;2022-12-18T08:37:55;93.20;;;46.20;;
35290;SDS011;21411;50.024;19.220;2022-12-18T08:40:21;85.70;;;45.20;;
35290;SDS011;21411;50.024;19.220;2022-12-18T08:42:47;91.20;;;46.90;;
35290;SDS011;21411;50.024;19.220;2022-12-18T08:45:31;91.80;;;47.20;;
35290;SDS011;21411;50.024;19.220;2022-12-18T08:47:59;85.60;;;44.70;;
35290;SDS011;21411;50.024;19.220;2022-12-18T08:50:25;88.50;;;45.50;;
35290;SDS011;21411;50.024;19.220;2022-12-18T08:52:51;83.60;;;41.10;;
35290;SDS011;21411;50.024;19.220;2022-12-18T08:55:17;80.80;;;42.70;;
35290;SDS011;21411;50.024;19.220;2022-12-18T08:57:43;87.70;;;45.10;;
35290;SDS011;21411;50.024;19.220;2022-12-18T09:00:14;88.70;;;44.10;;
35290;SDS011;21411;50.024;19.220;2022-12-18T09:02:40;89.60;;;45.60;;
35290;SDS011;21411;50.024;19.220;2022-12-18T09:05:06;85.10;;;42.90;;
35290;SDS011;21411;50.024;19.220;2022-12-18T09:07:32;80.40;;;38.80;;
35290;SDS011;21411;50.024;19.220;2022-12-18T09:09:58;80.00;;;37.30;;
35290;SDS011;21411;50.024;19.220;2022-12-18T09:12:24;73.40;;;35.40;;
35290;SDS011;21411;50.024;19.220;2022-12-18T09:14:50;68.40;;;34.70;;
35290;SDS011;21411;50.024;19.220;2022-12-18T09:17:16;65.50;;;33.20;;
35290;SDS011;21411;50.024;19.220;2022-12-18T09:19:43;70.30;;;34.60;;
35290;SDS011;21411;50.024;19.220;2022-12-18T09:22:09;66.30;;;32.40;;
35290;SDS011;21411;50.024;19.220;2022-12-18T09:24:35;66.00;;;34.00;;
35290;SDS011;21411;50.024;19.220;2022-12-18T09:27:01;70.50;;;32.10;;
35290;SDS011;21411;50.024;19.220;2022-12-18T09:29:27;68.40;;;33.20;;
35290;SDS011;21411;50.024;19.220;2022-12-18T09:31:54;66.60;;;33.00;;
35290;SDS011;21411;50.024;19.220;2022-12-18T09:34:20;65.50;;;33.60;;
35290;SDS011;21411;50.024;19.220;2022-12-18T09:36:49;72.70;;;35.00;;
35290;SDS011;21411;50.024;19.220;2022-12-18T09:39:16;68.10;;;34.00;;
35290;SDS011;21411;50.024;19.220;2022-12-18T09:44:27;72.10;;;35.70;;
35290;SDS011;21411;50.024;19.220;2022-12-18T09:47:01;74.30;;;35.60;;
35290;SDS011;21411;50.024;19.220;2022-12-18T09:49:33;78.60;;;36.70;;
35290;SDS011;21411;50.024;19.220;2022-12-18T09:52:11;72.10;;;35.80;;
35290;SDS011;21411;50.024;19.220;2022-12-18T09:54:41;79.70;;;38.70;;
35290;SDS011;21411;50.024;19.220;2022-12-18T09:57:15;77.10;;;38.30;;
35290;SDS011;21411;50.024;19.220;2022-12-18T09:59:58;77.50;;;39.90;;
35290;SDS011;21411;50.024;19.220;2022-12-18T10:02:32;82.40;;;38.90;;
35290;SDS011;21411;50.024;19.220;2022-12-18T10:05:02;84.00;;;41.40;;
35290;SDS011;21411;50.024;19.220;2022-12-18T10:07:47;83.10;;;40.70;;
35290;SDS011;21411;50.024;19.220;2022-12-18T10:21:38;80.70;;;40.90;;
35290;SDS011;21411;50.024;19.220;2022-12-18T10:27:04;75.90;;;38.40;;
35290;SDS011;21411;50.024;19.220;2022-12-18T10:29:43;78.60;;;41.90;;
35290;SDS011;21411;50.024;19.220;2022-12-18T10:32:15;81.50;;;39.20;;
35290;SDS011;21411;50.024;19.220;2022-12-18T10:34:46;73.30;;;36.90;;
35290;SDS011;21411;50.024;19.220;2022-12-18T10:37:17;78.60;;;39.30;;
35290;SDS011;21411;50.024;19.220;2022-12-18T10:39:45;80.20;;;40.60;;
35290;SDS011;21411;50.024;19.220;2022-12-18T10:42:18;75.30;;;39.30;;
35290;SDS011;21411;50.024;19.220;2022-12-18T10:44:45;97.30;;;52.30;;
35290;SDS011;21411;50.024;19.220;2022-12-18T10:47:15;86.20;;;44.10;;
35290;SDS011;21411;50.024;19.220;2022-12-18T10:49:51;81.80;;;42.20;;
35290;SDS011;21411;50.024;19.220;2022-12-18T10:52:21;71.90;;;37.10;;
35290;SDS011;21411;50.024;19.220;2022-12-18T10:54:54;77.10;;;40.00;;
35290;SDS011;21411;50.024;19.220;2022-12-18T10:57:31;74.10;;;37.30;;
35290;SDS011;21411;50.024;19.220;2022-12-18T10:59:59;74.90;;;39.10;;
35290;SDS011;21411;50.024;19.220;2022-12-18T11:02:45;75.20;;;38.00;;
35290;SDS011;21411;50.024;19.220;2022-12-18T11:07:54;71.20;;;35.10;;
35290;SDS011;21411;50.024;19.220;2022-12-18T11:10:21;67.50;;;35.50;;
35290;SDS011;21411;50.024;19.220;2022-12-18T11:12:51;78.40;;;43.40;;
35290;SDS011;21411;50.024;19.220;2022-12-18T11:15:36;66.50;;;36.30;;
35290;SDS011;21411;50.024;19.220;2022-12-18T11:18:02;59.50;;;31.80;;
35290;SDS011;21411;50.024;19.220;2022-12-18T11:20:32;66.30;;;34.40;;
35290;SDS011;21411;50.024;19.220;2022-12-18T11:23:03;84.10;;;44.60;;
35290;SDS011;21411;50.024;19.220;2022-12-18T11:25:35;97.60;;;55.30;;
35290;SDS011;21411;50.024;19.220;2022-12-18T11:28:03;67.00;;;36.70;;
35290;SDS011;21411;50.024;19.220;2022-12-18T11:30:32;57.40;;;31.70;;
35290;SDS011;21411;50.024;19.220;2022-12-18T11:33:05;68.90;;;36.10;;
35290;SDS011;21411;50.024;19.220;2022-12-18T11:35:44;67.90;;;40.80;;
35290;SDS011;21411;50.024;19.220;2022-12-18T11:38:23;62.90;;;32.70;;
35290;SDS011;21411;50.024;19.220;2022-12-18T11:41:16;58.10;;;32.00;;
35290;SDS011;21411;50.024;19.220;2022-12-18T11:43:59;64.00;;;35.00;;
35290;SDS011;21411;50.024;19.220;2022-12-18T11:46:32;60.60;;;30.70;;
35290;SDS011;21411;50.024;19.220;2022-12-18T11:49:25;61.00;;;33.10;;
35290;SDS011;21411;50.024;19.220;2022-12-18T11:52:14;62.20;;;30.30;;
35290;SDS011;21411;50.024;19.220;2022-12-18T11:54:45;56.70;;;29.30;;
35290;SDS011;21411;50.024;19.220;2022-12-18T12:00:00;57.60;;;30.90;;
35290;SDS011;21411;50.024;19.220;2022-12-18T12:08:07;67.70;;;34.90;;
35290;SDS011;21411;50.024;19.220;2022-12-18T12:10:49;64.30;;;31.60;;
35290;SDS011;21411;50.024;19.220;2022-12-18T12:21:51;61.90;;;31.40;;
35290;SDS011;21411;50.024;19.220;2022-12-18T12:24:37;58.00;;;30.80;;
35290;SDS011;21411;50.024;19.220;2022-12-18T12:30:21;109.70;;;53.70;;
35290;SDS011;21411;50.024;19.220;2022-12-18T12:35:52;91.90;;;44.30;;
35290;SDS011;21411;50.024;19.220;2022-12-18T12:38:42;60.00;;;32.00;;
35290;SDS011;21411;50.024;19.220;2022-12-18T12:41:14;64.50;;;33.50;;
35290;SDS011;21411;50.024;19.220;2022-12-18T12:44:05;62.90;;;30.20;;
35290;SDS011;21411;50.024;19.220;2022-12-18T12:46:37;62.30;;;31.90;;
35290;SDS011;21411;50.024;19.220;2022-12-18T12:49:09;73.80;;;44.50;;
35290;SDS011;21411;50.024;19.220;2022-12-18T12:51:51;66.70;;;37.70;;
35290;SDS011;21411;50.024;19.220;2022-12-18T12:54:31;64.50;;;35.10;;
35290;SDS011;21411;50.024;19.220;2022-12-18T13:00:03;61.40;;;30.10;;
35290;SDS011;21411;50.024;19.220;2022-12-18T13:02:35;58.40;;;31.10;;
35290;SDS011;21411;50.024;19.220;2022-12-18T13:05:23;59.50;;;30.10;;
35290;SDS011;21411;50.024;19.220;2022-12-18T13:08:24;53.40;;;27.50;;
35290;SDS011;21411;50.024;19.220;2022-12-18T13:10:52;54.90;;;28.60;;
35290;SDS011;21411;50.024;19.220;2022-12-18T13:14:00;63.10;;;32.20;;
35290;SDS011;21411;50.024;19.220;2022-12-18T13:16:26;61.00;;;33.80;;
35290;SDS011;21411;50.024;19.220;2022-12-18T13:18:56;59.30;;;30.20;;
35290;SDS011;21411;50.024;19.220;2022-12-18T13:21:27;67.60;;;32.20;;
35290;SDS011;21411;50.024;19.220;2022-12-18T13:23:55;60.50;;;32.70;;
35290;SDS011;21411;50.024;19.220;2022-12-18T13:28:52;71.50;;;33.20;;
35290;SDS011;21411;50.024;19.220;2022-12-18T13:34:26;69.80;;;35.00;;
35290;SDS011;21411;50.024;19.220;2022-12-18T13:36:56;67.90;;;34.40;;
35290;SDS011;21411;50.024;19.220;2022-12-18T13:39:42;80.20;;;36.60;;
35290;SDS011;21411;50.024;19.220;2022-12-18T13:44:35;76.60;;;38.00;;
35290;SDS011;21411;50.024;19.220;2022-12-18T13:47:02;80.00;;;38.20;;
35290;SDS011;21411;50.024;19.220;2022-12-18T13:54:52;72.50;;;37.20;;
35290;SDS011;21411;50.024;19.220;2022-12-18T13:57:27;73.10;;;37.30;;
35290;SDS011;21411;50.024;19.220;2022-12-18T13:59:55;76.40;;;40.80;;
35290;SDS011;21411;50.024;19.220;2022-12-18T14:02:23;78.10;;;41.10;;
35290;SDS011;21411;50.024;19.220;2022-12-18T14:04:53;84.10;;;44.30;;
35290;SDS011;21411;50.024;19.220;2022-12-18T14:07:24;80.40;;;42.90;;
35290;SDS011;21411;50.024;19.220;2022-12-18T14:09:52;86.60;;;41.80;;
35290;SDS011;21411;50.024;19.220;2022-12-18T14:15:21;80.70;;;41.70;;
35290;SDS011;21411;50.024;19.220;2022-12-18T14:20:51;79.20;;;42.40;;
35290;SDS011;21411;50.024;19.220;2022-12-18T14:26:02;93.80;;;44.00;;
35290;SDS011;21411;50.024;19.220;2022-12-18T14:28:45;90.40;;;44.50;;
35290;SDS011;21411;50.024;19.220;2022-12-18T14:34:03;80.30;;;41.50;;
35290;SDS011;21411;50.024;19.220;2022-12-18T14:36:29;83.50;;;39.00;;
35290;SDS011;21411;50.024;19.220;2022-12-18T14:38:58;78.10;;;40.30;;
35290;SDS011;21411;50.024;19.220;2022-12-18T14:41:25;78.90;;;40.30;;
35290;SDS011;21411;50.024;19.220;2022-12-18T14:43:52;81.70;;;40.70;;
35290;SDS011;21411;50.024;19.220;2022-12-18T14:46:27;82.40;;;41.40;;
35290;SDS011;21411;50.024;19.220;2022-12-18T14:48:55;81.90;;;40.00;;
35290;SDS011;21411;50.024;19.220;2022-12-18T14:51:27;99.30;;;48.90;;
35290;SDS011;21411;50.024;19.220;2022-12-18T14:53:56;106.70;;;52.60;;
35290;SDS011;21411;50.024;19.220;2022-12-18T14:56:25;118.00;;;55.90;;
35290;SDS011;21411;50.024;19.220;2022-12-18T14:58:55;138.20;;;70.40;;
35290;SDS011;21411;50.024;19.220;2022-12-18T15:04:26;110.00;;;55.10;;
35290;SDS011;21411;50.024;19.220;2022-12-18T15:10:02;111.90;;;55.60;;
35290;SDS011;21411;50.024;19.220;2022-12-18T15:12:35;117.70;;;57.70;;
35290;SDS011;21411;50.024;19.220;2022-12-18T15:15:05;107.20;;;46.80;;
35290;SDS011;21411;50.024;19.220;2022-12-18T15:17:57;103.00;;;47.60;;
35290;SDS011;21411;50.024;19.220;2022-12-18T15:20:27;98.40;;;47.80;;
35290;SDS011;21411;50.024;19.220;2022-12-18T15:22:57;99.70;;;46.90;;
35290;SDS011;21411;50.024;19.220;2022-12-18T15:25:41;91.50;;;41.80;;
35290;SDS011;21411;50.024;19.220;2022-12-18T15:28:16;85.70;;;44.30;;
35290;SDS011;21411;50.024;19.220;2022-12-18T15:31:02;94.40;;;45.60;;
35290;SDS011;21411;50.024;19.220;2022-12-18T15:33:38;95.30;;;44.90;;
35290;SDS011;21411;50.024;19.220;2022-12-18T15:36:10;89.20;;;41.90;;
35290;SDS011;21411;50.024;19.220;2022-12-18T15:38:38;90.20;;;44.00;;
35290;SDS011;21411;50.024;19.220;2022-12-18T15:41:04;94.20;;;47.50;;
35290;SDS011;21411;50.024;19.220;2022-12-18T15:43:30;99.40;;;50.40;;
35290;SDS011;21411;50.024;19.220;2022-12-18T15:46:08;103.40;;;50.50;;
35290;SDS011;21411;50.024;19.220;2022-12-18T15:49:00;104.00;;;50.50;;
35290;SDS011;21411;50.024;19.220;2022-12-18T15:51:36;97.60;;;48.70;;
35290;SDS011;21411;50.024;19.220;2022-12-18T15:54:05;121.60;;;52.20;;
35290;SDS011;21411;50.024;19.220;2022-12-18T15:56:37;107.70;;;52.50;;
35290;SDS011;21411;50.024;19.220;2022-12-18T15:59:22;119.30;;;53.30;;
35290;SDS011;21411;50.024;19.220;2022-12-18T16:01:49;107.70;;;50.90;;
35290;SDS011;21411;50.024;19.220;2022-12-18T16:04:18;110.40;;;51.40;;
35290;SDS011;21411;50.024;19.220;2022-12-18T16:06:46;119.60;;;54.40;;
35290;SDS011;21411;50.024;19.220;2022-12-18T16:09:13;119.50;;;59.90;;
35290;SDS011;21411;50.024;19.220;2022-12-18T16:11:39;132.80;;;60.80;;
35290;SDS011;21411;50.024;19.220;2022-12-18T16:14:18;123.90;;;61.70;;
35290;SDS011;21411;50.024;19.220;2022-12-18T16:16:47;125.00;;;64.20;;
35290;SDS011;21411;50.024;19.220;2022-12-18T16:19:14;130.90;;;65.90;;
35290;SDS011;21411;50.024;19.220;2022-12-18T16:21:41;135.90;;;68.80;;
35290;SDS011;21411;50.024;19.220;2022-12-18T16:24:12;142.50;;;68.90;;